Time;durP1;ratioP1;P1;durP2;ratioP2;P2;SDS_P1;SDS_P2;PMS_P1;PMS_P2;Temp;Humidity;BMP_temperature;BMP_pressure;BME280_temperature;BME280_humidity;BME280_pressure;Samples;Min_cycle;Max_cycle;Signal;HPM_P1;HPM_P2
2023/03/03 00:01:32;;;;;;;5.50;4.20;;;;;;;5.20;100.00;94661.69;5113127;28;20191;-85
2023/03/03 00:04:00;;;;;;;6.60;4.50;;;;;;;5.20;100.00;94668.59;5113017;28;20209;-85
2023/03/03 00:06:29;;;;;;;4.90;4.40;;;;;;;5.15;100.00;94653.72;5112982;28;20674;-86
2023/03/03 00:08:56;;;;;;;6.00;4.37;;;;;;;5.27;100.00;94672.84;5113046;28;20201;-85
2023/03/03 00:11:23;;;;;;;5.67;4.30;;;;;;;5.32;100.00;94664.56;5113277;28;20199;-85
2023/03/03 00:13:52;;;;;;;6.03;4.60;;;;;;;5.31;100.00;94660.41;5112990;28;20195;-85
2023/03/03 00:16:24;;;;;;;6.77;4.70;;;;;;;5.32;100.00;94654.25;5112957;28;20333;-86
2023/03/03 00:18:54;;;;;;;5.83;4.47;;;;;;;5.29;100.00;94660.56;5113082;28;20206;-85
2023/03/03 00:21:28;;;;;;;5.93;4.43;;;;;;;5.04;100.00;94629.25;5112823;28;20216;-85
2023/03/03 00:23:58;;;;;;;6.90;4.73;;;;;;;5.29;100.00;94647.69;5113415;28;20194;-86
2023/03/03 00:26:32;;;;;;;5.93;4.23;;;;;;;5.31;100.00;94657.81;5112547;28;20225;-85
2023/03/03 00:29:00;;;;;;;7.53;5.60;;;;;;;5.29;100.00;94652.84;5113406;28;20254;-85
2023/03/03 00:31:33;;;;;;;5.87;4.80;;;;;;;5.32;100.00;94638.78;5117234;28;20223;-85
2023/03/03 00:34:21;;;;;;;7.07;4.90;;;;;;;5.34;100.00;94634.28;5116849;28;20184;-86
2023/03/03 00:36:52;;;;;;;5.70;4.50;;;;;;;5.37;100.00;94647.56;5117283;28;20203;-85
2023/03/03 00:39:26;;;;;;;6.93;5.37;;;;;;;5.41;100.00;94653.94;5116994;28;20222;-85
2023/03/03 00:41:53;;;;;;;7.87;5.33;;;;;;;5.09;100.00;94615.81;5117013;28;20644;-86
2023/03/03 00:44:41;;;;;;;7.00;5.77;;;;;;;5.30;100.00;94644.16;5117008;28;20219;-84
2023/03/03 00:47:24;;;;;;;8.47;5.90;;;;;;;5.12;100.00;94605.16;5109643;28;20262;-86
2023/03/03 00:49:53;;;;;;;8.87;6.03;;;;;;;5.01;100.00;94593.59;5116695;28;20654;-86
2023/03/03 00:52:21;;;;;;;6.60;5.23;;;;;;;5.17;100.00;94607.97;5116679;28;20198;-85
2023/03/03 00:54:48;;;;;;;7.00;5.47;;;;;;;5.19;100.00;94590.56;5116241;28;20199;-85
2023/03/03 00:57:14;;;;;;;7.63;5.70;;;;;;;5.29;100.00;94616.78;5116102;28;20194;-85
2023/03/03 00:59:42;;;;;;;7.77;5.67;;;;;;;5.34;100.00;94614.44;5115695;28;20219;-85
2023/03/03 01:02:09;;;;;;;7.07;5.37;;;;;;;5.36;100.00;94615.06;5116860;28;20191;-86
2023/03/03 01:04:35;;;;;;;8.47;5.87;;;;;;;5.29;100.00;94596.16;5116302;28;20197;-85
2023/03/03 01:07:04;;;;;;;10.80;6.13;;;;;;;5.39;100.00;94612.13;5115779;28;20200;-85
2023/03/03 01:09:31;;;;;;;7.00;5.60;;;;;;;5.24;100.00;94579.69;5116016;28;20194;-85
2023/03/03 01:11:58;;;;;;;10.07;6.00;;;;;;;5.38;100.00;94610.50;5115591;28;20633;-85
2023/03/03 01:14:25;;;;;;;8.13;5.87;;;;;;;5.38;100.00;94607.13;5115977;28;20237;-86
2023/03/03 01:16:52;;;;;;;9.10;6.20;;;;;;;5.30;100.00;94595.19;5116131;28;20198;-85
2023/03/03 01:19:19;;;;;;;8.60;5.93;;;;;;;5.37;100.00;94603.75;5115985;28;20219;-85
2023/03/03 01:21:46;;;;;;;7.97;5.90;;;;;;;5.39;100.00;94603.59;5115849;28;20198;-85
2023/03/03 01:24:15;;;;;;;9.97;6.07;;;;;;;5.31;100.00;94596.00;5116101;28;20199;-83
2023/03/03 01:26:41;;;;;;;11.50;6.53;;;;;;;5.35;100.00;94597.19;5114918;28;20273;-85
2023/03/03 01:29:08;;;;;;;9.67;6.83;;;;;;;5.32;100.00;94606.09;5115891;28;20198;-84
2023/03/03 01:31:35;;;;;;;9.33;6.73;;;;;;;5.39;100.00;94603.59;5115869;28;20239;-85
2023/03/03 01:34:02;;;;;;;7.97;5.90;;;;;;;5.18;100.00;94572.69;5115240;28;20196;-85
2023/03/03 01:36:29;;;;;;;9.47;6.27;;;;;;;5.38;100.00;94604.56;5115501;28;20199;-85
2023/03/03 01:38:56;;;;;;;9.20;6.10;;;;;;;5.29;100.00;94585.06;5115530;28;20227;-85
2023/03/03 01:41:31;;;;;;;9.17;5.93;;;;;;;5.42;100.00;94600.63;5114635;28;20198;-85
2023/03/03 01:43:58;;;;;;;9.47;6.47;;;;;;;5.33;100.00;94591.44;5115709;28;20334;-85
2023/03/03 01:46:56;;;;;;;7.90;5.90;;;;;;;5.43;100.00;94600.44;5115181;28;20197;-85
2023/03/03 01:49:27;;;;;;;8.43;5.73;;;;;;;5.47;100.00;94596.50;5081544;27;20281;-85
2023/03/03 01:51:57;;;;;;;8.03;6.10;;;;;;;5.34;100.00;94578.38;5136169;27;20245;-85
2023/03/03 01:54:29;;;;;;;8.20;5.73;;;;;;;5.39;100.00;94586.34;5137299;27;20194;-85
2023/03/03 01:57:01;;;;;;;8.57;6.37;;;;;;;5.24;100.00;94559.88;5136304;27;20243;-85
2023/03/03 01:59:31;;;;;;;7.57;5.80;;;;;;;5.41;100.00;94586.16;5136053;27;20232;-85
2023/03/03 02:01:58;;;;;;;7.70;5.70;;;;;;;5.46;100.00;94584.59;5135834;27;20194;-85
2023/03/03 02:04:26;;;;;;;8.70;5.87;;;;;;;5.34;100.00;94588.66;5135816;27;20195;-85
2023/03/03 02:06:58;;;;;;;8.40;5.63;;;;;;;5.34;100.00;94593.81;5135384;27;20279;-85
2023/03/03 02:09:32;;;;;;;9.40;6.03;;;;;;;5.35;100.00;94598.00;5135328;27;20668;-85
2023/03/03 02:12:07;;;;;;;8.50;5.70;;;;;;;5.38;100.00;94581.38;5135704;27;20189;-85
2023/03/03 02:14:34;;;;;;;7.70;5.70;;;;;;;5.38;100.00;94591.66;5135624;27;20552;-85
2023/03/03 02:17:01;;;;;;;9.67;5.63;;;;;;;5.32;100.00;94584.69;5135599;27;20203;-85
2023/03/03 02:19:36;;;;;;;8.07;5.23;;;;;;;5.38;100.00;94595.06;5136006;27;20232;-85
2023/03/03 02:22:03;;;;;;;9.73;5.63;;;;;;;5.41;100.00;94597.25;5135827;27;20193;-85
2023/03/03 02:24:39;;;;;;;7.73;5.30;;;;;;;5.18;100.00;94557.25;5134999;27;20198;-85
2023/03/03 02:27:07;;;;;;;8.13;5.67;;;;;;;5.45;100.00;94597.69;5134724;27;20730;-85
2023/03/03 02:29:34;;;;;;;7.50;4.87;;;;;;;5.37;100.00;94578.00;5135382;27;20190;-84
2023/03/03 02:32:01;;;;;;;8.90;5.83;;;;;;;5.37;100.00;94593.44;5135276;27;20668;-85
2023/03/03 02:34:28;;;;;;;8.70;5.77;;;;;;;5.38;100.00;94595.06;5135479;27;20203;-82
2023/03/03 02:36:55;;;;;;;7.60;5.13;;;;;;;5.37;100.00;94592.69;5135803;27;20198;-84
2023/03/03 02:39:23;;;;;;;7.57;4.73;;;;;;;5.36;100.00;94594.44;5136113;27;20224;-83
2023/03/03 02:41:57;;;;;;;7.03;5.20;;;;;;;5.30;100.00;94578.94;5137395;27;20198;-83
2023/03/03 02:44:29;;;;;;;6.43;4.83;;;;;;;5.16;100.00;94557.44;5142622;27;20632;-82
2023/03/03 02:46:57;;;;;;;6.80;5.00;;;;;;;5.31;100.00;94577.97;5137366;27;20198;-83
2023/03/03 02:49:26;;;;;;;6.50;5.00;;;;;;;5.34;100.00;94575.00;5134591;27;20193;-84
2023/03/03 02:51:53;;;;;;;5.77;4.40;;;;;;;5.42;100.00;94590.31;5134155;27;20183;-83
2023/03/03 02:54:22;;;;;;;7.07;5.00;;;;;;;5.45;100.00;94585.59;5120738;27;20652;-82
2023/03/03 02:56:49;;;;;;;6.33;4.80;;;;;;;5.48;100.00;94585.19;5113839;28;20202;-83
2023/03/03 02:59:17;;;;;;;6.10;4.63;;;;;;;5.49;100.00;94579.06;5113397;28;20225;-83
2023/03/03 03:01:46;;;;;;;6.77;5.10;;;;;;;5.45;100.00;94574.50;5113442;28;20187;-84
2023/03/03 03:04:15;;;;;;;6.73;5.07;;;;;;;5.48;100.00;94579.28;5113672;28;20210;-84
2023/03/03 03:06:43;;;;;;;7.57;5.23;;;;;;;5.46;100.00;94576.88;5113315;28;20201;-84
2023/03/03 03:09:10;;;;;;;7.73;5.20;;;;;;;5.45;100.00;94580.44;5113267;28;20188;-83
2023/03/03 03:11:38;;;;;;;6.10;5.20;;;;;;;5.35;100.00;94574.00;5113360;28;20551;-84
2023/03/03 03:14:07;;;;;;;8.60;5.57;;;;;;;5.38;100.00;94565.91;5113393;28;20198;-84
2023/03/03 03:16:34;;;;;;;7.27;5.80;;;;;;;5.46;100.00;94578.66;5113177;28;20199;-83
2023/03/03 03:19:04;;;;;;;8.53;5.70;;;;;;;5.40;100.00;94575.03;5113362;28;20296;-83
2023/03/03 03:21:31;;;;;;;7.37;5.57;;;;;;;5.41;100.00;94579.22;5112691;28;20234;-84
2023/03/03 03:23:59;;;;;;;9.13;6.37;;;;;;;5.46;100.00;94574.28;5104296;28;20214;-83
2023/03/03 03:26:26;;;;;;;11.87;6.17;;;;;;;5.51;100.00;94573.75;5113030;28;20226;-83
2023/03/03 03:28:53;;;;;;;9.77;6.70;;;;;;;5.42;100.00;94573.09;5113392;28;20210;-83
2023/03/03 03:31:21;;;;;;;8.33;6.50;;;;;;;5.36;100.00;94566.13;5113124;28;20199;-84
2023/03/03 03:33:48;;;;;;;8.60;6.50;;;;;;;5.11;100.00;94557.19;5113122;28;20197;-84
2023/03/03 03:36:17;;;;;;;11.20;6.33;;;;;;;5.17;100.00;94566.75;5113110;28;20187;-83
2023/03/03 03:38:44;;;;;;;9.70;6.77;;;;;;;5.24;100.00;94554.72;5112864;28;20196;-83
2023/03/03 03:41:12;;;;;;;9.37;7.07;;;;;;;5.03;100.00;94524.66;5112956;28;20222;-85
2023/03/03 03:43:40;;;;;;;10.30;7.30;;;;;;;5.26;100.00;94565.63;5113339;28;20206;-86
2023/03/03 03:46:07;;;;;;;9.37;7.10;;;;;;;5.20;100.00;94561.22;5113083;28;20608;-85
2023/03/03 03:48:34;;;;;;;10.20;7.13;;;;;;;5.14;100.00;94557.63;5113194;28;20736;-86
2023/03/03 03:51:01;;;;;;;11.80;7.30;;;;;;;5.08;100.00;94534.38;5113312;28;20198;-85
2023/03/03 03:53:30;;;;;;;10.37;7.00;;;;;;;5.25;100.00;94563.25;5107818;28;20585;-86
2023/03/03 03:55:57;;;;;;;10.20;7.67;;;;;;;5.21;100.00;94557.69;5093185;28;20207;-85
2023/03/03 03:58:24;;;;;;;10.63;7.57;;;;;;;5.13;100.00;94561.19;5092766;28;20265;-86
2023/03/03 04:00:51;;;;;;;11.60;7.77;;;;;;;5.25;100.00;94555.53;5092235;28;20714;-84
2023/03/03 04:03:18;;;;;;;12.43;7.83;;;;;;;5.29;100.00;94554.94;5092474;28;20203;-85
2023/03/03 04:05:45;;;;;;;11.47;7.97;;;;;;;5.21;100.00;94534.50;5092188;28;20563;-85
2023/03/03 04:08:12;;;;;;;12.30;8.13;;;;;;;5.18;100.00;94539.22;5092706;28;20926;-85
2023/03/03 04:10:40;;;;;;;13.17;8.23;;;;;;;5.24;100.00;94552.16;5092697;28;20211;-85
2023/03/03 04:13:07;;;;;;;12.87;8.80;;;;;;;5.24;100.00;94557.31;5092202;28;20207;-83
2023/03/03 04:15:34;;;;;;;12.87;9.00;;;;;;;5.22;100.00;94546.41;5092006;28;20199;-82
2023/03/03 04:18:02;;;;;;;13.67;8.70;;;;;;;5.30;100.00;94553.19;5092341;28;20190;-83
2023/03/03 04:20:29;;;;;;;14.80;9.50;;;;;;;5.29;100.00;94543.84;5091648;28;20227;-82
2023/03/03 04:22:56;;;;;;;13.53;9.57;;;;;;;5.29;100.00;94554.94;5092430;28;20744;-84
2023/03/03 04:25:23;;;;;;;14.00;9.10;;;;;;;5.28;100.00;94552.56;5112076;28;20197;-83
2023/03/03 04:27:53;;;;;;;13.17;9.10;;;;;;;5.29;100.00;94551.56;5112005;28;20241;-83
2023/03/03 04:30:20;;;;;;;13.47;8.83;;;;;;;5.18;100.00;94541.78;5112283;28;20202;-83
2023/03/03 04:32:48;;;;;;;15.87;9.27;;;;;;;5.25;100.00;94547.81;5112152;28;20199;-84
2023/03/03 04:35:15;;;;;;;14.03;9.03;;;;;;;5.28;100.00;94543.03;5112263;28;20688;-83
2023/03/03 04:37:42;;;;;;;13.57;8.93;;;;;;;5.29;100.00;94546.41;5112284;28;20191;-83
2023/03/03 04:40:10;;;;;;;13.20;8.53;;;;;;;5.23;100.00;94537.66;5112116;28;20230;-83
2023/03/03 04:42:37;;;;;;;12.30;8.83;;;;;;;5.25;100.00;94543.44;5112055;28;20194;-84
2023/03/03 04:45:06;;;;;;;12.93;9.00;;;;;;;5.21;100.00;94549.94;5112028;28;20252;-84
2023/03/03 04:47:33;;;;;;;13.77;9.17;;;;;;;5.13;100.00;94548.31;5112300;28;20194;-84
2023/03/03 04:50:00;;;;;;;12.17;8.77;;;;;;;5.04;100.00;94520.31;5112096;28;20210;-84
2023/03/03 04:52:27;;;;;;;13.00;9.23;;;;;;;5.17;100.00;94548.72;5111987;28;20199;-84
2023/03/03 04:54:54;;;;;;;14.70;9.53;;;;;;;5.10;100.00;94537.59;5094319;28;20210;-84
2023/03/03 04:57:21;;;;;;;14.30;9.27;;;;;;;5.21;100.00;94549.94;5091558;28;20215;-83
2023/03/03 04:59:48;;;;;;;13.63;9.10;;;;;;;5.18;100.00;94540.03;5091579;28;20196;-83
2023/03/03 05:02:17;;;;;;;14.73;9.53;;;;;;;5.18;100.00;94544.38;5091685;28;20192;-83
2023/03/03 05:04:44;;;;;;;16.17;9.53;;;;;;;5.10;100.00;94555.63;5091500;28;20188;-83
2023/03/03 05:07:11;;;;;;;13.77;8.97;;;;;;;5.08;100.00;94537.75;5091438;28;20202;-83
2023/03/03 05:09:38;;;;;;;12.27;8.97;;;;;;;5.23;100.00;94555.69;5091883;28;20202;-83
2023/03/03 05:12:06;;;;;;;16.87;9.80;;;;;;;5.21;100.00;94552.53;5091723;28;20199;-83
2023/03/03 05:14:32;;;;;;;13.60;8.73;;;;;;;5.25;100.00;94555.53;5091465;28;20207;-82
2023/03/03 05:17:00;;;;;;;13.50;8.80;;;;;;;5.26;100.00;94562.25;5093518;28;20265;-83
2023/03/03 05:19:28;;;;;;;15.20;9.30;;;;;;;5.14;100.00;94542.16;5094904;28;20204;-83
2023/03/03 05:21:56;;;;;;;15.77;9.50;;;;;;;5.29;100.00;94564.47;5095109;28;20214;-83
2023/03/03 05:24:23;;;;;;;15.80;9.37;;;;;;;5.24;100.00;94556.50;5108264;28;20237;-83
2023/03/03 05:26:50;;;;;;;15.53;9.83;;;;;;;5.32;100.00;94558.94;5115461;28;20238;-82
2023/03/03 05:29:17;;;;;;;17.47;10.07;;;;;;;5.34;100.00;94565.47;5115366;28;20646;-83
2023/03/03 05:31:44;;;;;;;17.87;11.00;;;;;;;5.41;100.00;94566.34;5115534;28;20202;-83
2023/03/03 05:34:11;;;;;;;17.03;10.50;;;;;;;5.43;100.00;94560.97;5115267;28;20583;-83
2023/03/03 05:36:39;;;;;;;16.93;10.00;;;;;;;5.37;100.00;94559.97;5115132;28;20191;-83
2023/03/03 05:39:06;;;;;;;16.30;10.53;;;;;;;5.07;100.00;94519.94;5115125;28;20520;-82
2023/03/03 05:41:35;;;;;;;17.17;10.47;;;;;;;5.21;100.00;94534.50;5115638;28;20227;-83
2023/03/03 05:44:02;;;;;;;16.43;10.93;;;;;;;5.28;100.00;94553.34;5115758;28;20263;-84
2023/03/03 05:46:29;;;;;;;19.33;11.17;;;;;;;5.29;100.00;94549.81;5116866;28;20207;-83
2023/03/03 05:48:56;;;;;;;17.23;10.37;;;;;;;5.42;100.00;94565.38;5115442;28;20690;-83
2023/03/03 05:51:23;;;;;;;19.33;11.40;;;;;;;5.40;100.00;94564.72;5115058;28;20195;-83
2023/03/03 05:53:51;;;;;;;17.37;11.50;;;;;;;5.46;100.00;94570.91;5106552;28;20195;-83
2023/03/03 05:56:18;;;;;;;23.10;13.90;;;;;;;5.38;100.00;94558.19;5094525;28;20203;-84
2023/03/03 05:58:45;;;;;;;20.23;12.70;;;;;;;5.41;100.00;94565.53;5094637;28;20280;-84
2023/03/03 06:01:12;;;;;;;20.57;12.53;;;;;;;5.29;100.00;94552.38;5095049;28;20222;-84
2023/03/03 06:03:39;;;;;;;19.90;12.07;;;;;;;5.23;100.00;94536.88;5095180;28;20246;-85
2023/03/03 06:06:07;;;;;;;18.20;11.50;;;;;;;5.37;100.00;94559.97;5094485;28;20195;-84
2023/03/03 06:08:34;;;;;;;18.53;11.83;;;;;;;5.40;100.00;94567.31;5094987;28;20245;-85
2023/03/03 06:11:03;;;;;;;21.03;11.87;;;;;;;5.40;100.00;94572.47;5094569;28;20203;-84
2023/03/03 06:13:30;;;;;;;18.30;11.33;;;;;;;5.43;100.00;94566.13;5094364;28;20192;-84
2023/03/03 06:15:57;;;;;;;18.00;11.50;;;;;;;5.47;100.00;94575.91;5093925;28;20203;-83
2023/03/03 06:18:24;;;;;;;19.53;11.97;;;;;;;5.33;100.00;94563.09;5094113;28;20642;-84
2023/03/03 06:20:52;;;;;;;20.00;11.47;;;;;;;5.45;100.00;94575.28;5093874;28;20223;-84
2023/03/03 06:23:20;;;;;;;19.77;11.43;;;;;;;5.46;100.00;94576.88;5098096;28;20207;-84
2023/03/03 06:25:47;;;;;;;19.90;11.20;;;;;;;5.42;100.00;94570.50;5114507;28;20252;-84
2023/03/03 06:28:15;;;;;;;20.73;11.37;;;;;;;5.41;100.00;94570.69;5114060;28;20234;-84
2023/03/03 06:30:42;;;;;;;17.53;11.40;;;;;;;5.43;100.00;94584.97;5114610;28;20278;-85
2023/03/03 06:33:09;;;;;;;17.27;10.80;;;;;;;5.48;100.00;94580.03;5114990;28;20191;-83
2023/03/03 06:35:37;;;;;;;19.00;11.30;;;;;;;5.47;100.00;94575.09;5114476;28;20202;-84
2023/03/03 06:38:04;;;;;;;15.87;10.50;;;;;;;5.54;100.00;94588.84;5114238;28;20575;-84
2023/03/03 06:40:31;;;;;;;17.27;10.87;;;;;;;5.45;100.00;94562.41;5114544;28;20242;-83
2023/03/03 06:42:58;;;;;;;15.77;9.93;;;;;;;5.49;100.00;94571.34;5114067;28;20194;-84
2023/03/03 06:45:26;;;;;;;14.27;9.10;;;;;;;5.61;100.00;94571.59;5113869;28;20197;-84
2023/03/03 06:47:53;;;;;;;12.60;8.60;;;;;;;5.69;100.00;94581.75;5113781;28;20195;-82
2023/03/03 06:50:21;;;;;;;16.70;8.97;;;;;;;5.69;100.00;94589.50;5113969;28;20218;-83
2023/03/03 06:52:48;;;;;;;13.43;8.80;;;;;;;5.49;100.00;94557.66;5113775;28;20255;-83
2023/03/03 06:55:21;;;;;;;13.40;9.13;;;;;;;5.80;100.00;94594.13;5093158;28;20212;-83
2023/03/03 06:57:48;;;;;;;13.73;8.43;;;;;;;5.82;100.00;94594.75;5093376;28;20585;-83
2023/03/03 07:00:19;;;;;;;13.07;8.83;;;;;;;5.90;100.00;94598.97;5093398;28;20559;-83
2023/03/03 07:02:53;;;;;;;14.40;9.70;;;;;;;5.82;100.00;94586.22;5093571;28;20180;-84
2023/03/03 07:05:23;;;;;;;17.67;10.33;;;;;;;5.85;100.00;94581.50;5093634;28;20658;-84
2023/03/03 07:07:50;;;;;;;16.97;10.80;;;;;;;6.00;100.00;94607.94;5093463;28;20196;-83
2023/03/03 07:10:23;;;;;;;18.57;10.67;;;;;;;5.93;100.00;94586.50;5093049;28;20192;-83
2023/03/03 07:12:50;;;;;;;18.43;12.13;;;;;;;5.84;100.00;94573.91;5093281;28;20181;-83
2023/03/03 07:15:20;;;;;;;19.80;13.23;;;;;;;5.82;100.00;94557.84;5093595;28;20599;-84
2023/03/03 07:17:50;;;;;;;14.37;10.03;;;;;;;5.89;100.00;94569.81;5093678;28;20187;-84
2023/03/03 07:20:21;;;;;;;19.77;11.77;;;;;;;6.11;100.00;94601.47;5093251;28;20663;-84
2023/03/03 07:22:48;;;;;;;17.13;11.60;;;;;;;6.16;100.00;94599.09;5092848;28;20173;-84
2023/03/03 07:25:26;;;;;;;17.93;11.20;;;;;;;6.11;100.00;94602.28;5093575;28;20242;-83
2023/03/03 07:27:56;;;;;;;15.23;10.70;;;;;;;6.15;100.00;94600.06;5110682;28;20238;-84
2023/03/03 07:30:26;;;;;;;18.97;10.73;;;;;;;5.94;100.00;94558.94;5112810;28;20254;-84
2023/03/03 07:32:56;;;;;;;16.87;11.07;;;;;;;6.23;100.00;94602.53;5112442;28;20675;-83
2023/03/03 07:35:41;;;;;;;14.77;9.27;;;;;;;6.12;100.00;94582.41;5113058;28;20207;-84
2023/03/03 07:38:23;;;;;;;17.47;10.00;;;;;;;6.21;100.00;94602.69;5112622;28;20195;-84
2023/03/03 07:40:52;;;;;;;15.27;9.90;;;;;;;6.04;100.00;94569.69;5094567;28;20226;-84
2023/03/03 07:43:30;;;;;;;13.80;9.60;;;;;;;6.21;100.00;94594.16;5113379;28;20239;-85
2023/03/03 07:46:04;;;;;;;13.50;9.90;;;;;;;6.20;100.00;94585.63;5113153;28;20194;-85
2023/03/03 07:48:37;;;;;;;15.10;9.60;;;;;;;6.00;100.00;94556.34;5113089;28;20245;-85
2023/03/03 07:51:12;;;;;;;13.20;9.20;;;;;;;6.24;100.00;94591.19;5113086;28;20187;-85
2023/03/03 07:53:39;;;;;;;13.30;9.53;;;;;;;6.09;100.00;94564.75;5113211;28;20198;-85
2023/03/03 07:56:17;;;;;;;15.50;10.20;;;;;;;6.02;100.00;94551.81;5113196;28;20190;-85
2023/03/03 07:58:44;;;;;;;16.87;10.27;;;;;;;6.35;100.00;94592.44;5114125;28;20183;-85
2023/03/03 08:01:32;;;;;;;13.90;10.33;;;;;;;6.13;100.00;94565.94;5113380;28;20227;-85
2023/03/03 08:04:01;;;;;;;15.07;9.77;;;;;;;6.13;100.00;94553.84;5113291;28;20672;-85
2023/03/03 08:06:48;;;;;;;13.80;9.87;;;;;;;6.39;100.00;94586.69;5113223;28;20188;-85
2023/03/03 08:09:42;;;;;;;15.47;10.13;;;;;;;6.44;100.00;94589.47;5112804;28;20199;-86
2023/03/03 08:12:31;;;;;;;15.63;9.97;;;;;;;6.19;100.00;94553.09;5113160;28;20197;-84
2023/03/03 08:15:14;;;;;;;15.23;9.83;;;;;;;6.29;100.00;94568.22;5111415;28;20207;-85
2023/03/03 08:17:44;;;;;;;14.53;9.83;;;;;;;6.41;100.00;94589.06;5113116;28;20176;-85
2023/03/03 08:20:41;;;;;;;16.60;9.70;;;;;;;6.47;100.00;94583.94;5112168;28;20195;-85
2023/03/03 08:23:08;;;;;;;17.57;10.83;;;;;;;6.26;100.00;94556.47;5112263;28;20175;-83
2023/03/03 08:25:35;;;;;;;16.53;11.23;;;;;;;6.54;100.00;94573.63;5112280;28;20203;-83
2023/03/03 08:28:01;;;;;;;16.27;11.00;;;;;;;6.46;100.00;94569.44;5111950;28;20265;-84
2023/03/03 08:30:29;;;;;;;16.97;11.23;;;;;;;6.42;100.00;94560.50;5112073;28;20195;-85
2023/03/03 08:32:56;;;;;;;18.17;10.57;;;;;;;6.41;100.00;94558.88;5111388;28;20643;-85
2023/03/03 08:35:23;;;;;;;16.57;10.80;;;;;;;6.58;100.00;94573.03;5112275;28;20622;-85
2023/03/03 08:37:51;;;;;;;15.40;10.60;;;;;;;6.44;100.00;94543.00;5111939;28;20195;-85
2023/03/03 08:40:21;;;;;;;14.87;10.37;;;;;;;6.57;100.00;94562.91;5112049;28;20282;-85
2023/03/03 08:42:48;;;;;;;13.73;9.43;;;;;;;6.67;100.00;94558.16;5112046;28;20211;-85
2023/03/03 08:45:15;;;;;;;15.17;10.57;;;;;;;6.77;100.00;94566.31;5112056;28;20199;-84
2023/03/03 08:47:45;;;;;;;18.50;11.40;;;;;;;6.80;100.00;94571.91;5112023;28;20227;-83
2023/03/03 08:50:13;;;;;;;16.90;11.33;;;;;;;6.83;100.00;94575.88;5111811;28;20200;-84
2023/03/03 08:52:40;;;;;;;18.17;11.33;;;;;;;6.77;100.00;94572.28;5115143;28;20196;-84
2023/03/03 08:55:09;;;;;;;20.40;11.40;;;;;;;6.72;100.00;94573.88;5115133;28;20206;-85
2023/03/03 08:57:37;;;;;;;17.43;11.03;;;;;;;6.71;100.00;94560.16;5114837;28;20662;-84
2023/03/03 09:00:07;;;;;;;18.27;11.20;;;;;;;6.63;100.00;94567.28;5115752;28;20199;-85
2023/03/03 09:02:36;;;;;;;17.23;11.67;;;;;;;6.51;100.00;94561.09;5115488;28;20658;-84
2023/03/03 09:05:04;;;;;;;18.17;10.97;;;;;;;6.71;100.00;94582.59;5115809;28;20223;-85
2023/03/03 09:07:31;;;;;;;18.23;11.23;;;;;;;6.66;100.00;94559.97;5115489;28;20256;-85
2023/03/03 09:09:58;;;;;;;16.33;11.17;;;;;;;6.79;100.00;94580.63;5115626;28;20578;-85
2023/03/03 09:12:34;;;;;;;17.77;11.73;;;;;;;6.81;100.00;94577.88;5115496;28;20193;-84
2023/03/03 09:15:13;;;;;;;17.30;10.97;;;;;;;6.73;100.00;94563.34;5114960;28;20199;-84
2023/03/03 09:17:40;;;;;;;19.47;12.30;;;;;;;6.74;100.00;94566.72;5115104;28;20182;-83
2023/03/03 09:20:22;;;;;;;18.17;11.60;;;;;;;6.80;100.00;94558.19;5115015;28;20199;-84
2023/03/03 09:22:50;;;;;;;19.17;12.17;;;;;;;6.69;100.00;94535.53;5114784;28;20216;-85
2023/03/03 09:25:22;;;;;;;16.63;11.20;;;;;;;6.99;100.00;94572.09;5094472;28;20232;-84
2023/03/03 09:27:53;;;;;;;17.93;11.47;;;;;;;7.09;100.00;94575.09;5094647;28;20233;-85
2023/03/03 09:30:36;;;;;;;19.23;12.43;;;;;;;7.19;100.00;94570.31;5094542;28;20189;-84
2023/03/03 09:33:21;;;;;;;19.53;12.40;;;;;;;7.19;100.00;94571.13;5094386;28;20219;-84
2023/03/03 09:35:51;;;;;;;18.97;12.20;;;;;;;7.29;100.00;94571.53;5094628;28;20183;-84
2023/03/03 09:38:29;;;;;;;19.40;12.27;;;;;;;7.12;100.00;94560.00;5094962;28;20192;-84
2023/03/03 09:41:27;;;;;;;19.13;12.17;;;;;;;7.24;100.00;94573.91;5094751;28;20210;-85
2023/03/03 09:44:17;;;;;;;18.03;11.77;;;;;;;7.26;100.00;94564.16;5094911;28;20246;-84
2023/03/03 09:46:53;;;;;;;17.47;11.60;;;;;;;7.28;100.00;94564.75;5094478;28;20374;-84
2023/03/03 09:49:29;;;;;;;20.43;13.13;;;;;;;7.28;100.00;94571.72;5094630;28;20177;-83
2023/03/03 09:52:21;;;;;;;18.73;12.10;;;;;;;7.23;100.00;94576.69;5094443;28;20181;-85
2023/03/03 09:54:59;;;;;;;19.47;12.33;;;;;;;7.07;100.00;94554.63;5110861;28;20214;-84
2023/03/03 09:57:38;;;;;;;18.63;11.93;;;;;;;7.26;100.00;94578.88;5114831;28;20623;-84
2023/03/03 10:04:04;;;;;;;16.27;10.77;;;;;;;7.26;100.00;94569.34;5105296;28;20583;-84
2023/03/03 10:06:38;;;;;;;16.10;10.87;;;;;;;7.28;100.00;94569.13;5090352;28;20645;-84
2023/03/03 10:09:35;;;;;;;17.70;11.73;;;;;;;7.27;100.00;94565.75;5096457;28;20245;-84
2023/03/03 10:12:10;;;;;;;15.00;10.53;;;;;;;7.25;100.00;94562.56;5115073;28;20195;-86
2023/03/03 10:14:49;;;;;;;15.20;10.90;;;;;;;7.34;100.00;94565.75;5114751;28;20665;-84
2023/03/03 10:17:26;;;;;;;15.60;11.10;;;;;;;7.25;100.00;94556.59;5114175;28;20577;-85
2023/03/03 10:20:06;;;;;;;15.33;11.10;;;;;;;7.21;100.00;94552.84;5114434;28;20181;-85
2023/03/03 10:22:45;;;;;;;17.77;11.13;;;;;;;6.97;100.00;94525.81;5113627;28;20219;-84
2023/03/03 10:25:22;;;;;;;16.47;11.80;;;;;;;7.01;100.00;94524.44;5110695;28;20257;-83
2023/03/03 10:28:02;;;;;;;19.50;11.87;;;;;;;7.12;100.00;94556.63;5127585;28;20219;-84
2023/03/03 10:30:43;;;;;;;14.90;10.30;;;;;;;7.03;100.00;94544.88;5128801;28;20203;-84
2023/03/03 10:33:17;;;;;;;16.23;11.17;;;;;;;7.07;100.00;94551.25;5114841;28;20271;-84
2023/03/03 10:36:06;;;;;;;16.07;10.90;;;;;;;7.11;100.00;94558.41;5114354;28;20185;-85
2023/03/03 10:38:47;;;;;;;16.53;11.70;;;;;;;7.13;100.00;94553.06;5114024;28;20183;-84
2023/03/03 10:41:35;;;;;;;17.43;12.17;;;;;;;7.14;100.00;94552.84;5114137;28;20249;-85
2023/03/03 10:44:24;;;;;;;19.70;13.43;;;;;;;7.19;100.00;94550.44;5113541;28;20196;-85
2023/03/03 10:47:14;;;;;;;22.50;12.97;;;;;;;7.13;100.00;94546.06;5114102;28;20207;-86
2023/03/03 10:49:52;;;;;;;20.37;12.50;;;;;;;7.04;100.00;94546.50;5113785;28;20342;-85
2023/03/03 10:52:39;;;;;;;20.00;13.17;;;;;;;6.93;100.00;94534.13;5113394;28;20738;-85
2023/03/03 10:55:37;;;;;;;19.00;13.17;;;;;;;6.93;100.00;94534.13;5114462;28;20281;-85
2023/03/03 10:58:38;;;;;;;19.63;13.07;;;;;;;7.07;100.00;94536.53;5113286;28;20547;-85
2023/03/03 11:01:13;;;;;;;22.37;13.77;;;;;;;6.96;100.00;94519.03;5113706;28;20183;-85
2023/03/03 11:04:15;;;;;;;23.60;14.87;;;;;;;6.89;100.00;94509.72;5114101;28;20219;-86
2023/03/03 11:06:52;;;;;;;21.13;14.13;;;;;;;7.05;100.00;94524.81;5076969;28;20187;-85
2023/03/03 11:09:51;;;;;;;22.60;15.07;;;;;;;7.09;100.00;94521.66;5113025;28;20201;-84
2023/03/03 11:12:29;;;;;;;22.50;15.77;;;;;;;6.83;100.00;94491.44;5114350;28;20190;-87
2023/03/03 11:15:17;;;;;;;30.10;19.10;;;;;;;6.54;100.00;94494.41;5112994;28;20192;-85
2023/03/03 11:17:56;;;;;;;32.07;20.10;;;;;;;6.69;100.00;94522.63;5112945;28;20192;-84
2023/03/03 11:21:01;;;;;;;39.53;20.43;;;;;;;6.69;100.00;94512.28;5107420;28;20197;-84
2023/03/03 11:23:44;;;;;;;32.20;19.27;;;;;;;6.48;100.00;94507.28;5108625;28;20299;-85
2023/03/03 11:26:27;;;;;;;36.37;20.93;;;;;;;6.42;100.00;94500.34;5109417;28;20585;-85
2023/03/03 11:29:09;;;;;;;37.47;23.13;;;;;;;6.61;100.00;94504.75;5085577;28;20736;-83
2023/03/03 11:31:44;;;;;;;34.23;20.97;;;;;;;6.82;100.00;94507.94;5091854;28;20185;-82
2023/03/03 11:34:27;;;;;;;30.63;19.20;;;;;;;6.73;100.00;94498.78;5091836;28;20570;-84
2023/03/03 11:36:58;;;;;;;27.97;17.83;;;;;;;6.65;100.00;94511.09;5092234;28;20714;-83
2023/03/03 11:39:29;;;;;;;30.43;19.37;;;;;;;6.48;100.00;94491.81;5091478;28;20276;-83
2023/03/03 11:42:16;;;;;;;29.57;18.17;;;;;;;6.69;100.00;94507.94;5092290;28;20189;-83
2023/03/03 11:44:47;;;;;;;28.83;18.47;;;;;;;6.81;100.00;94501.16;5091848;28;20193;-81
2023/03/03 11:47:22;;;;;;;30.63;20.20;;;;;;;6.84;100.00;94498.19;5091105;28;20208;-81
2023/03/03 11:49:59;;;;;;;28.77;18.43;;;;;;;6.90;100.00;94498.41;5088740;28;20252;-80